createdAt,value
2022-11-09T00:00:16.766Z,13.27
2022-11-09T00:05:09.167Z,13.87
2022-11-09T00:10:02.065Z,14.47
2022-11-09T00:14:54.208Z,14.93
2022-11-09T00:19:46.440Z,13.53
2022-11-09T00:24:38.738Z,13.93
2022-11-09T00:29:31.041Z,16.27
2022-11-09T00:34:26.584Z,15.00
2022-11-09T00:39:20.741Z,12.50
2022-11-09T00:44:13.712Z,12.03
2022-11-09T00:49:06.096Z,14.93
2022-11-09T00:53:58.620Z,13.33
2022-11-09T00:58:54.899Z,12.00
2022-11-09T01:03:49.296Z,12.73
2022-11-09T01:08:41.623Z,15.30
2022-11-09T01:13:34.621Z,12.23
2022-11-09T01:18:26.815Z,16.70
2022-11-09T01:23:20.698Z,14.40
2022-11-09T01:28:13.440Z,17.43
2022-11-09T01:33:07.356Z,15.00
2022-11-09T01:37:59.737Z,14.50
2022-11-09T01:42:51.981Z,16.10
2022-11-09T01:47:58.782Z,14.07
2022-11-09T01:52:55.396Z,14.10
2022-11-09T01:58:44.491Z,16.23
2022-11-09T02:11:17.117Z,15.73
2022-11-09T02:17:24.453Z,15.60
2022-11-09T02:23:31.784Z,15.23
2022-11-09T02:29:38.847Z,16.17
2022-11-09T02:35:45.875Z,14.13
2022-11-09T02:41:53.075Z,15.53
2022-11-09T02:48:00.187Z,19.03
2022-11-09T02:54:07.389Z,18.40
2022-11-09T03:00:14.434Z,17.27
2022-11-09T03:06:21.481Z,19.17
2022-11-09T03:12:29.956Z,15.17
2022-11-09T03:18:37.312Z,19.70
2022-11-09T03:24:44.460Z,17.97
2022-11-09T03:30:51.334Z,16.40
2022-11-09T03:36:58.505Z,18.20
2022-11-09T03:43:05.586Z,19.83
2022-11-09T03:49:12.761Z,17.70
2022-11-09T03:55:19.788Z,18.83
2022-11-09T04:00:31.028Z,18.00
2022-11-09T04:05:24.574Z,16.27
2022-11-09T04:10:17.168Z,18.80
2022-11-09T04:15:10.414Z,17.00
2022-11-09T04:20:02.862Z,16.67
2022-11-09T04:24:55.133Z,15.13
2022-11-09T04:29:47.858Z,17.87
2022-11-09T04:34:41.454Z,15.77
2022-11-09T04:39:33.954Z,15.40
2022-11-09T04:44:26.103Z,14.90
2022-11-09T04:49:18.380Z,14.50
2022-11-09T04:54:11.652Z,16.43
2022-11-09T04:59:03.958Z,15.57
2022-11-09T05:03:56.189Z,15.83
2022-11-09T05:08:48.722Z,14.43
2022-11-09T05:13:40.999Z,14.73
2022-11-09T05:18:33.518Z,14.63
2022-11-09T05:23:44.152Z,13.17
2022-11-09T05:28:36.638Z,13.93
2022-11-09T05:33:28.952Z,15.27
2022-11-09T05:38:21.587Z,14.83
2022-11-09T05:43:13.938Z,13.93
2022-11-09T05:48:06.927Z,14.10
2022-11-09T05:53:00.588Z,19.67
2022-11-09T05:57:52.925Z,13.30
2022-11-09T06:02:45.034Z,13.70
2022-11-09T06:07:37.290Z,13.70
2022-11-09T06:12:29.486Z,14.53
2022-11-09T06:17:21.723Z,13.37
2022-11-09T06:22:14.465Z,16.40
2022-11-09T06:27:09.351Z,12.13
2022-11-09T06:32:01.577Z,13.30
2022-11-09T06:36:54.255Z,13.10
2022-11-09T06:41:47.710Z,12.70
2022-11-09T06:46:41.103Z,15.73
2022-11-09T06:51:34.862Z,12.80
2022-11-09T06:56:27.321Z,14.97
2022-11-09T07:01:22.758Z,13.40
2022-11-09T07:06:15.105Z,14.43
2022-11-09T07:11:13.713Z,13.47
2022-11-09T07:16:07.105Z,15.43
2022-11-09T07:20:59.637Z,13.97
2022-11-09T07:25:53.362Z,14.13
2022-11-09T07:30:45.667Z,13.80
2022-11-09T07:35:38.830Z,11.83
2022-11-09T07:40:31.088Z,14.13
2022-11-09T07:45:24.074Z,13.63
2022-11-09T07:50:16.614Z,19.23
2022-11-09T07:55:09.258Z,13.60
2022-11-09T08:00:01.447Z,14.07
2022-11-09T08:05:04.859Z,14.53
2022-11-09T08:09:57.031Z,16.93
2022-11-09T08:14:49.373Z,14.57
2022-11-09T08:19:43.284Z,14.87
2022-11-09T08:24:35.526Z,16.97
2022-11-09T08:29:27.752Z,14.30
2022-11-09T08:34:20.154Z,13.43
2022-11-09T08:39:12.406Z,13.40
2022-11-09T08:44:04.706Z,13.83
2022-11-09T08:48:56.887Z,14.10
2022-11-09T08:53:49.171Z,13.13
2022-11-09T08:58:41.370Z,12.87
2022-11-09T09:03:36.479Z,12.63
2022-11-09T09:08:28.666Z,13.57
2022-11-09T09:13:22.935Z,11.97
2022-11-09T09:18:15.186Z,11.97
2022-11-09T09:23:07.456Z,10.87
2022-11-09T09:28:00.133Z,10.57
2022-11-09T09:32:52.573Z,10.70
2022-11-09T09:37:44.966Z,9.70
2022-11-09T09:42:43.981Z,10.70
2022-11-09T09:47:47.301Z,9.50
2022-11-09T09:53:10.631Z,9.90
2022-11-09T09:58:14.592Z,9.03
2022-11-09T10:03:14.613Z,8.73
2022-11-09T10:08:35.272Z,8.80
2022-11-09T10:14:07.891Z,8.67
2022-11-09T10:19:22.546Z,10.97
2022-11-09T10:25:43.594Z,8.90
2022-11-09T10:30:17.267Z,8.83
2022-11-09T10:35:45.559Z,8.97
2022-11-09T10:40:53.429Z,8.43
2022-11-09T10:46:07.754Z,10.83
2022-11-09T10:51:40.772Z,8.70
2022-11-09T10:57:11.872Z,8.53
2022-11-09T11:02:45.054Z,10.17
2022-11-09T11:07:56.807Z,10.90
2022-11-09T11:14:03.839Z,11.27
2022-11-09T11:20:10.831Z,9.17
2022-11-09T11:26:18.084Z,10.17
2022-11-09T11:32:25.044Z,10.13
2022-11-09T11:38:32.201Z,8.87
2022-11-09T11:44:39.579Z,8.43
2022-11-09T11:50:49.601Z,10.13
2022-11-09T11:56:57.250Z,10.37
2022-11-09T12:03:04.350Z,8.30
2022-11-09T12:09:12.740Z,8.07
2022-11-09T12:15:19.955Z,9.13
2022-11-09T12:21:29.243Z,9.20
2022-11-09T12:27:36.400Z,9.60
2022-11-09T12:33:44.093Z,10.03
2022-11-09T12:39:51.159Z,9.90
2022-11-09T12:45:59.248Z,10.00
2022-11-09T12:52:07.036Z,10.77
2022-11-09T12:58:15.484Z,12.57
2022-11-09T13:04:22.613Z,11.37
2022-11-09T13:09:44.461Z,13.97
2022-11-09T13:14:56.126Z,11.70
2022-11-09T13:26:21.695Z,14.63
2022-11-09T13:32:03.353Z,11.40
2022-11-09T13:37:36.038Z,13.30
2022-11-09T13:42:58.430Z,14.10
2022-11-09T13:49:07.261Z,13.83
2022-11-09T13:55:15.287Z,14.20
2022-11-09T14:01:22.082Z,15.27
2022-11-09T14:07:29.275Z,13.63
2022-11-09T14:13:36.395Z,14.07
2022-11-09T14:19:45.735Z,15.17
2022-11-09T14:25:52.630Z,14.77
2022-11-09T14:32:02.094Z,15.53
2022-11-09T14:38:09.279Z,17.70
2022-11-09T14:44:17.833Z,17.57
2022-11-09T14:50:25.166Z,17.07
2022-11-09T15:03:24.978Z,18.20
2022-11-09T15:16:15.380Z,17.67
2022-11-09T15:22:22.587Z,20.70
2022-11-09T15:28:29.998Z,20.23
2022-11-09T15:34:38.385Z,20.80
2022-11-09T15:40:46.316Z,22.70
2022-11-09T15:46:53.791Z,21.60
2022-11-09T15:52:13.208Z,25.23
2022-11-09T15:57:24.463Z,23.67
2022-11-09T16:02:36.679Z,21.40
2022-11-09T16:07:52.622Z,25.13
2022-11-09T16:13:05.550Z,22.40
2022-11-09T16:18:25.950Z,25.77
2022-11-09T16:23:39.984Z,22.00
2022-11-09T16:28:55.028Z,19.57
2022-11-09T16:34:10.212Z,19.83
2022-11-09T16:39:21.538Z,20.47
2022-11-09T16:44:37.157Z,20.63
2022-11-09T16:49:49.219Z,22.73
2022-11-09T16:55:10.692Z,21.67
2022-11-09T17:00:37.466Z,25.43
2022-11-09T17:06:11.477Z,18.90
2022-11-09T17:11:26.905Z,19.50
2022-11-09T17:16:40.108Z,18.07
2022-11-09T17:21:51.497Z,18.50
2022-11-09T17:27:10.478Z,16.40
2022-11-09T17:32:25.197Z,18.77
2022-11-09T17:37:36.565Z,17.10
2022-11-09T17:42:49.908Z,16.63
2022-11-09T17:48:01.918Z,16.73
2022-11-09T17:53:13.537Z,16.33
2022-11-09T17:58:28.845Z,15.63
2022-11-09T18:03:47.590Z,14.47
2022-11-09T18:09:39.046Z,15.70
2022-11-09T18:14:37.600Z,14.70
2022-11-09T18:19:48.794Z,14.23
2022-11-09T18:24:59.998Z,14.53
2022-11-09T18:30:12.254Z,14.10
2022-11-09T18:35:26.736Z,13.90
2022-11-09T18:40:40.107Z,14.93
2022-11-09T18:46:14.695Z,12.13
2022-11-09T18:51:29.230Z,13.50
2022-11-09T18:56:42.592Z,20.33
2022-11-09T19:02:00.719Z,13.03
2022-11-09T19:07:14.770Z,13.17
2022-11-09T19:12:28.114Z,14.67
2022-11-09T19:17:43.225Z,12.87
2022-11-09T19:22:55.039Z,13.57
2022-11-09T19:28:15.393Z,13.53
2022-11-09T19:33:29.871Z,14.13
2022-11-09T19:38:44.903Z,14.57
2022-11-09T19:44:36.366Z,13.67
2022-11-09T19:49:47.808Z,19.47
2022-11-09T19:55:08.389Z,14.53
2022-11-09T20:00:22.871Z,13.57
2022-11-09T20:05:37.451Z,14.33
2022-11-09T20:11:11.483Z,16.63
2022-11-09T20:16:32.237Z,13.97
2022-11-09T20:21:38.492Z,17.63
2022-11-09T20:26:51.428Z,15.70
2022-11-09T20:32:12.038Z,13.87
2022-11-09T20:37:23.810Z,17.97
2022-11-09T20:42:44.580Z,15.83
2022-11-09T20:48:19.053Z,14.43
2022-11-09T20:53:49.487Z,14.83
2022-11-09T20:59:05.097Z,14.37
2022-11-09T21:04:19.212Z,16.00
2022-11-09T21:09:32.115Z,16.13
2022-11-09T21:14:47.561Z,15.40
2022-11-09T21:20:02.830Z,14.10
2022-11-09T21:25:33.171Z,17.30
2022-11-09T21:30:44.598Z,14.57
2022-11-09T21:35:59.970Z,17.77
2022-11-09T21:41:34.355Z,15.50
2022-11-09T21:46:45.682Z,31.67
2022-11-09T21:51:56.513Z,18.40
2022-11-09T21:57:07.407Z,15.77
2022-11-09T22:02:17.966Z,17.73
2022-11-09T22:07:28.556Z,20.27
2022-11-09T22:12:57.685Z,17.23
2022-11-09T22:18:28.528Z,18.27
2022-11-09T22:30:21.917Z,18.70
2022-11-09T22:35:32.551Z,20.83
2022-11-09T22:40:43.119Z,22.80
2022-11-09T22:45:53.471Z,19.37
2022-11-09T22:51:05.587Z,19.27
2022-11-09T22:56:17.553Z,17.63
2022-11-09T23:01:28.353Z,16.80
2022-11-09T23:06:39.432Z,14.43
2022-11-09T23:11:50.476Z,18.57
2022-11-09T23:17:00.894Z,13.73
2022-11-09T23:22:11.408Z,16.47
2022-11-09T23:27:21.936Z,14.83
2022-11-09T23:32:32.686Z,13.90
2022-11-09T23:37:43.407Z,13.63
2022-11-09T23:42:57.717Z,15.53
2022-11-09T23:48:15.685Z,14.87
2022-11-09T23:53:28.137Z,13.93
2022-11-09T23:58:38.852Z,12.77
